Time;durP1;ratioP1;P1;durP2;ratioP2;P2;SDS_P1;SDS_P2;PMS_P1;PMS_P2;Temp;Humidity;BMP_temperature;BMP_pressure;BME280_temperature;BME280_humidity;BME280_pressure;Samples;Min_cycle;Max_cycle;Signal;HPM_P1;HPM_P2
2022/10/26 00:00:12;;;;;;;12.68;10.43;;;;;;;9.44;73.94;100982.25;821014;24;1414;-77
2022/10/26 00:00:33;;;;;;;12.82;10.20;;;;;;;9.43;73.66;100976.97;823465;24;772;-77
2022/10/26 00:01:12;;;;;;;12.20;10.15;;;;;;;9.47;73.97;100978.88;826421;23;1312;-77
2022/10/26 00:01:33;;;;;;;12.90;10.50;;;;;;;9.42;73.71;100975.22;833926;23;933;-77
2022/10/26 00:01:53;;;;;;;13.80;10.77;;;;;;;9.40;73.86;100971.66;836454;23;985;-77
2022/10/26 00:02:14;;;;;;;15.50;10.77;;;;;;;9.43;73.72;100966.56;841476;23;1061;-77
2022/10/26 00:02:35;;;;;;;17.20;11.32;;;;;;;9.45;73.78;100975.31;837722;23;759;-76
2022/10/26 00:02:55;;;;;;;17.17;11.20;;;;;;;9.43;73.73;100969.16;832253;23;1196;-77
2022/10/26 00:03:17;;;;;;;14.98;11.23;;;;;;;9.52;73.84;100985.13;832184;23;1188;-76
2022/10/26 00:03:39;;;;;;;12.68;10.32;;;;;;;9.42;74.09;100970.00;832114;23;1075;-77
2022/10/26 00:04:00;;;;;;;12.35;10.02;;;;;;;9.45;73.69;100976.22;833616;23;921;-77
2022/10/26 00:04:20;;;;;;;11.23;9.90;;;;;;;9.42;73.91;100965.69;824672;23;1081;-77
2022/10/26 00:04:41;;;;;;;11.40;10.20;;;;;;;9.51;73.76;100975.53;825947;24;796;-77
2022/10/26 00:05:02;;;;;;;11.90;10.60;;;;;;;9.43;73.71;100969.16;824188;23;1198;-77
2022/10/26 00:05:23;;;;;;;14.00;10.50;;;;;;;9.44;73.74;100960.50;826057;24;771;-77
2022/10/26 00:05:44;;;;;;;16.17;10.75;;;;;;;9.43;73.78;100961.34;825865;23;1162;-76
2022/10/26 00:06:09;;;;;;;16.65;10.70;;;;;;;9.52;73.83;100987.72;825742;23;1901;-78
2022/10/26 00:06:31;;;;;;;15.65;10.50;;;;;;;9.45;74.08;100973.59;832212;23;1325;-77
2022/10/26 00:06:52;;;;;;;14.13;10.23;;;;;;;9.45;73.83;100965.78;835526;23;991;-78
2022/10/26 00:07:13;;;;;;;15.80;10.68;;;;;;;9.53;74.21;100989.50;836165;23;937;-77
2022/10/26 00:07:33;;;;;;;17.00;11.00;;;;;;;9.45;73.77;100970.09;829652;23;732;-77
2022/10/26 00:07:54;;;;;;;16.88;11.05;;;;;;;9.48;73.69;100970.22;831403;23;910;-78
2022/10/26 00:08:14;;;;;;;14.37;10.60;;;;;;;9.43;73.72;100967.47;833625;23;994;-77
2022/10/26 00:08:35;;;;;;;12.98;10.65;;;;;;;9.42;73.79;100965.69;833510;23;755;-77
2022/10/26 00:08:57;;;;;;;14.52;10.50;;;;;;;9.47;73.92;100973.66;833348;23;1174;-78
2022/10/26 00:09:18;;;;;;;16.83;11.20;;;;;;;9.50;73.85;100971.16;829514;23;1490;-78
2022/10/26 00:09:39;;;;;;;16.45;11.20;;;;;;;9.45;73.90;100965.78;832200;23;1217;-77
2022/10/26 00:10:00;;;;;;;15.63;11.27;;;;;;;9.46;74.05;100975.38;827920;23;1297;-78
2022/10/26 00:10:20;;;;;;;13.52;10.30;;;;;;;9.47;73.91;100968.44;828220;23;1187;-77
2022/10/26 00:10:41;;;;;;;11.90;9.70;;;;;;;9.46;73.89;100962.34;832366;23;1355;-78
2022/10/26 00:11:02;;;;;;;11.00;9.63;;;;;;;9.50;73.81;100962.44;833535;23;1177;-78
2022/10/26 00:11:23;;;;;;;11.65;10.13;;;;;;;9.53;74.00;100973.84;832166;23;885;-78
2022/10/26 00:11:44;;;;;;;13.97;10.50;;;;;;;9.44;73.62;100957.91;835781;23;1082;-77
2022/10/26 00:12:04;;;;;;;15.45;11.00;;;;;;;9.49;74.03;100958.97;835978;23;1254;-77
2022/10/26 00:12:26;;;;;;;15.45;11.05;;;;;;;9.48;73.67;100959.81;829092;23;1465;-77
2022/10/26 00:12:51;;;;;;;13.50;10.98;;;;;;;9.46;73.83;100953.63;828227;23;1141;-77
2022/10/26 00:13:12;;;;;;;13.57;10.48;;;;;;;9.50;74.16;100963.34;824471;24;951;-78
2022/10/26 00:13:34;;;;;;;14.25;10.10;;;;;;;9.45;73.92;100960.56;824492;24;1232;-77
2022/10/26 00:13:55;;;;;;;15.00;10.20;;;;;;;9.44;73.91;100951.00;829706;23;1096;-78
2022/10/26 00:14:15;;;;;;;12.20;10.30;;;;;;;9.48;73.73;100957.19;832179;23;1320;-77
2022/10/26 00:14:36;;;;;;;12.43;10.33;;;;;;;9.43;73.69;100946.63;828121;23;1218;-77
2022/10/26 00:14:56;;;;;;;11.73;9.90;;;;;;;9.48;74.08;100961.50;824379;23;1109;-77
2022/10/26 00:15:19;;;;;;;11.98;9.95;;;;;;;9.45;73.80;100960.56;829418;23;1362;-78
2022/10/26 00:15:41;;;;;;;11.45;10.07;;;;;;;9.46;74.03;100957.13;832340;23;1218;-77
2022/10/26 00:16:21;;;;;;;12.00;10.20;;;;;;;9.46;73.72;100946.72;831658;23;1318;-77
2022/10/26 00:16:42;;;;;;;12.30;10.10;;;;;;;9.49;74.05;100963.28;832811;23;864;-77
2022/10/26 00:17:02;;;;;;;12.53;10.47;;;;;;;9.46;73.68;100941.50;831543;23;1021;-77
2022/10/26 00:17:23;;;;;;;13.15;10.90;;;;;;;9.49;73.95;100956.38;833555;23;806;-78
2022/10/26 00:17:44;;;;;;;12.87;10.50;;;;;;;9.48;73.85;100954.59;828506;23;1264;-78
2022/10/26 00:18:05;;;;;;;12.00;9.82;;;;;;;9.57;73.89;100970.53;832166;23;1245;-78
2022/10/26 00:18:26;;;;;;;11.65;9.50;;;;;;;9.52;73.80;100959.06;832257;23;1517;-77
2022/10/26 00:18:48;;;;;;;11.30;9.48;;;;;;;9.48;73.99;100943.28;827959;23;1061;-78
2022/10/26 00:19:08;;;;;;;11.32;9.88;;;;;;;9.59;73.89;100961.06;832094;23;1137;-78
2022/10/26 00:19:32;;;;;;;10.50;9.40;;;;;;;9.60;74.09;100964.56;831897;23;1255;-77
2022/10/26 00:19:53;;;;;;;11.43;9.55;;;;;;;9.48;74.09;100936.34;829465;23;1107;-77
2022/10/26 00:20:14;;;;;;;11.77;9.80;;;;;;;9.58;74.14;100953.19;826966;23;1140;-77
2022/10/26 00:20:35;;;;;;;12.20;9.90;;;;;;;9.55;73.74;100953.97;828219;23;799;-77
2022/10/26 00:21:02;;;;;;;10.55;9.45;;;;;;;9.58;74.15;100954.06;828107;23;1019;-78
2022/10/26 00:21:24;;;;;;;9.98;8.98;;;;;;;9.65;74.07;100964.72;820636;24;1366;-78
2022/10/26 00:21:46;;;;;;;10.27;9.18;;;;;;;9.60;73.75;100956.75;824187;24;1230;-77
2022/10/26 00:22:07;;;;;;;11.05;9.48;;;;;;;9.56;73.99;100947.94;828186;23;1166;-77
2022/10/26 00:22:27;;;;;;;10.93;9.65;;;;;;;9.60;73.88;100954.13;824460;24;816;-77
2022/10/26 00:22:48;;;;;;;11.00;9.50;;;;;;;9.59;73.96;100953.25;828052;23;1059;-78
2022/10/26 00:23:08;;;;;;;11.63;9.40;;;;;;;9.63;73.85;100955.97;828400;23;1108;-77
2022/10/26 00:23:30;;;;;;;12.43;9.70;;;;;;;9.54;73.64;100944.41;824355;24;1040;-77
2022/10/26 00:23:50;;;;;;;13.20;9.95;;;;;;;9.57;73.52;100944.50;825743;24;1136;-78
2022/10/26 00:24:12;;;;;;;13.88;9.90;;;;;;;9.57;74.06;100944.50;824437;23;1249;-78
2022/10/26 00:24:34;;;;;;;12.20;9.60;;;;;;;9.62;73.88;100951.56;823991;23;1206;-78
2022/10/26 00:24:55;;;;;;;11.40;9.30;;;;;;;9.66;73.89;100953.47;824115;23;1181;-77
2022/10/26 00:25:16;;;;;;;11.10;9.05;;;;;;;9.62;73.76;100951.56;827000;23;1030;-78
2022/10/26 00:25:36;;;;;;;11.50;9.10;;;;;;;9.62;73.73;100951.56;828343;23;1058;-77
2022/10/26 00:25:57;;;;;;;12.10;8.90;;;;;;;9.65;73.64;100943.88;830384;23;946;-77
2022/10/26 00:26:18;;;;;;;12.50;9.07;;;;;;;9.66;73.74;100948.25;832734;23;1905;-77
2022/10/26 00:26:39;;;;;;;13.07;9.15;;;;;;;9.62;73.88;100949.84;837458;23;751;-77
2022/10/26 00:26:59;;;;;;;14.15;9.45;;;;;;;9.72;73.71;100964.09;837445;23;1235;-77
2022/10/26 00:27:21;;;;;;;12.95;9.25;;;;;;;9.69;73.86;100950.94;832121;23;1236;-77
2022/10/26 00:27:43;;;;;;;12.07;8.90;;;;;;;9.66;73.82;100946.53;820127;24;1246;-77
2022/10/26 00:28:04;;;;;;;9.95;8.80;;;;;;;9.67;73.82;100939.59;824293;24;1321;-77
2022/10/26 00:28:24;;;;;;;9.85;8.80;;;;;;;9.66;73.97;100945.63;828228;23;1242;-77
2022/10/26 00:28:45;;;;;;;11.23;8.95;;;;;;;9.69;73.63;100949.25;824155;24;1057;-77
2022/10/26 00:29:06;;;;;;;12.93;9.00;;;;;;;9.69;73.82;100950.94;824480;24;1215;-77
2022/10/26 00:29:27;;;;;;;13.40;9.38;;;;;;;9.66;73.70;100943.03;824140;24;804;-78
2022/10/26 00:29:48;;;;;;;14.77;9.43;;;;;;;9.68;73.72;100939.66;823968;23;1062;-78
2022/10/26 00:30:09;;;;;;;14.00;9.60;;;;;;;9.70;73.63;100944.91;820424;24;1500;-77
2022/10/26 00:30:30;;;;;;;12.98;9.20;;;;;;;9.67;73.60;100943.09;820331;24;1126;-78
2022/10/26 00:30:51;;;;;;;10.95;8.88;;;;;;;9.69;73.86;100945.72;821440;24;933;-77
2022/10/26 00:31:14;;;;;;;10.10;8.90;;;;;;;9.68;73.60;100941.34;820462;24;1344;-77
2022/10/26 00:31:35;;;;;;;10.98;9.35;;;;;;;9.70;73.60;100950.09;821654;24;826;-77
2022/10/26 00:31:55;;;;;;;12.40;9.40;;;;;;;9.73;73.77;100948.50;825134;23;1078;-78
2022/10/26 00:32:16;;;;;;;14.60;9.50;;;;;;;9.71;73.83;100944.97;830479;23;1145;-77
2022/10/26 00:32:37;;;;;;;13.88;9.20;;;;;;;9.77;73.70;100957.31;828154;23;1357;-78
2022/10/26 00:32:57;;;;;;;12.87;9.10;;;;;;;9.76;73.90;100945.09;830136;23;1114;-77
2022/10/26 00:33:18;;;;;;;11.80;9.10;;;;;;;9.78;73.95;100951.28;832018;23;1542;-77
2022/10/26 00:33:39;;;;;;;12.00;9.32;;;;;;;9.81;73.67;100950.47;832101;23;1209;-77
2022/10/26 00:34:01;;;;;;;14.77;9.60;;;;;;;9.73;73.80;100939.81;824899;23;1261;-78
2022/10/26 00:34:21;;;;;;;13.95;9.30;;;;;;;9.82;74.22;100958.38;828131;23;1296;-78
2022/10/26 00:34:42;;;;;;;12.93;9.13;;;;;;;9.78;73.82;100946.06;824280;23;1109;-77
2022/10/26 00:35:02;;;;;;;13.10;9.00;;;;;;;9.78;73.88;100951.28;823850;23;1147;-77
2022/10/26 00:35:23;;;;;;;12.65;9.00;;;;;;;9.82;73.79;100955.75;829475;23;853;-77
2022/10/26 00:35:47;;;;;;;10.77;9.00;;;;;;;9.78;73.78;100942.56;829235;23;1089;-77
2022/10/26 00:36:09;;;;;;;10.45;9.13;;;;;;;9.79;73.58;100940.03;830496;23;1051;-78
2022/10/26 00:36:30;;;;;;;13.45;9.00;;;;;;;9.83;73.44;100948.84;829302;23;1230;-77
2022/10/26 00:36:51;;;;;;;12.07;8.45;;;;;;;9.91;73.49;100959.50;827946;23;1197;-77
2022/10/26 00:37:12;;;;;;;12.27;8.55;;;;;;;9.82;73.71;100941.81;833416;23;1088;-77
2022/10/26 00:37:32;;;;;;;10.48;8.70;;;;;;;9.85;73.70;100955.84;828022;23;1135;-77
2022/10/26 00:37:54;;;;;;;11.03;8.83;;;;;;;9.82;73.49;100940.13;829268;23;997;-78
2022/10/26 00:38:15;;;;;;;11.50;8.43;;;;;;;9.85;73.47;100948.03;830276;23;1105;-77
2022/10/26 00:38:36;;;;;;;11.02;8.45;;;;;;;9.86;73.49;100941.09;830767;23;712;-77
2022/10/26 00:38:57;;;;;;;10.55;8.55;;;;;;;9.91;73.25;100951.69;837098;23;1018;-77
2022/10/26 00:39:18;;;;;;;10.23;8.60;;;;;;;9.89;73.48;100950.75;831448;23;1057;-78
2022/10/26 00:39:40;;;;;;;9.90;8.60;;;;;;;9.83;73.54;100944.50;831466;23;1194;-77
2022/10/26 00:40:00;;;;;;;10.10;8.20;;;;;;;9.83;73.69;100941.88;832947;23;928;-77
2022/10/26 00:40:26;;;;;;;10.40;8.25;;;;;;;9.90;73.30;100958.63;833964;23;1135;-77
2022/10/26 00:40:47;;;;;;;10.40;8.10;;;;;;;9.85;73.60;100944.56;837230;23;1014;-77
2022/10/26 00:41:13;;;;;;;9.57;8.10;;;;;;;9.90;73.66;100952.53;833370;23;1003;-77
2022/10/26 00:41:34;;;;;;;9.80;8.02;;;;;;;9.85;73.83;100936.72;832039;23;1928;-77
2022/10/26 00:41:54;;;;;;;10.50;8.40;;;;;;;9.88;73.50;100944.66;831806;23;1361;-77
2022/10/26 00:42:19;;;;;;;9.73;8.07;;;;;;;9.95;73.50;100958.78;823887;24;1385;-77
2022/10/26 00:42:40;;;;;;;10.20;8.20;;;;;;;9.87;73.56;100946.38;824243;23;1435;-77
2022/10/26 00:43:01;;;;;;;10.25;8.38;;;;;;;9.87;73.33;100942.88;827979;23;1199;-78
2022/10/26 00:43:22;;;;;;;10.65;8.32;;;;;;;9.96;73.52;100964.03;824345;24;1381;-77
2022/10/26 00:43:42;;;;;;;13.23;8.10;;;;;;;9.91;73.45;100954.28;828008;23;1220;-77
2022/10/26 00:44:54;;;;;;;13.02;8.00;;;;;;;9.97;73.46;100955.38;828310;23;1229;-78
2022/10/26 00:45:27;;;;;;;9.07;7.90;;;;;;;9.90;73.64;100940.38;820145;24;1081;-77
2022/10/26 00:45:51;;;;;;;10.95;8.23;;;;;;;9.94;73.26;100954.41;819824;24;1223;-77
2022/10/26 00:46:42;;;;;;;12.63;8.50;;;;;;;9.99;73.64;100960.66;820018;24;1926;-78
2022/10/26 00:47:04;;;;;;;11.77;8.30;;;;;;;9.90;73.63;100942.09;825002;24;1400;-77
2022/10/26 00:47:48;;;;;;;10.77;8.25;;;;;;;9.94;73.45;100949.19;832554;23;1205;-78
2022/10/26 00:48:20;;;;;;;9.35;7.90;;;;;;;9.95;73.28;100950.97;840159;23;965;-77
2022/10/26 00:48:46;;;;;;;8.90;8.00;;;;;;;9.98;73.55;100958.88;839657;23;1149;-77
2022/10/26 00:49:19;;;;;;;9.02;7.95;;;;;;;9.94;73.52;100944.00;828058;23;1934;-77
2022/10/26 00:49:40;;;;;;;10.13;8.48;;;;;;;9.94;73.45;100942.25;827713;23;799;-77
2022/10/26 00:50:09;;;;;;;10.30;8.40;;;;;;;10.00;73.46;100949.38;827446;23;1366;-77
2022/10/26 00:50:34;;;;;;;9.18;7.90;;;;;;;9.97;73.42;100938.88;829766;23;945;-77
2022/10/26 00:50:57;;;;;;;8.65;7.40;;;;;;;10.01;73.11;100951.16;830988;23;1055;-77
2022/10/26 00:51:26;;;;;;;10.63;7.75;;;;;;;10.01;73.20;100941.63;832003;23;1542;-77
2022/10/26 00:51:52;;;;;;;11.05;8.07;;;;;;;9.99;73.02;100943.28;829358;23;1051;-77
2022/10/26 00:52:14;;;;;;;11.50;8.13;;;;;;;10.10;73.17;100955.78;828062;23;1272;-77
2022/10/26 00:52:36;;;;;;;10.13;8.00;;;;;;;10.07;72.92;100942.66;824119;24;1198;-77
2022/10/26 00:52:59;;;;;;;9.65;8.00;;;;;;;10.11;73.24;100945.41;828105;23;1268;-77
2022/10/26 00:53:20;;;;;;;11.07;8.50;;;;;;;10.09;73.00;100944.47;825407;24;958;-77
2022/10/26 00:53:41;;;;;;;11.50;8.43;;;;;;;10.12;73.08;100951.50;824248;24;1084;-77
2022/10/26 00:54:06;;;;;;;12.48;8.55;;;;;;;10.11;72.99;100941.91;823909;24;1714;-77
2022/10/26 00:54:27;;;;;;;10.25;8.23;;;;;;;10.10;73.25;100941.03;823982;24;847;-77
2022/10/26 00:54:48;;;;;;;10.38;8.68;;;;;;;10.07;73.04;100940.94;824087;24;1405;-77
2022/10/26 00:55:10;;;;;;;10.60;8.50;;;;;;;10.08;73.32;100947.91;831820;23;1068;-77
2022/10/26 00:55:37;;;;;;;9.98;8.20;;;;;;;10.11;73.06;100942.81;825492;24;957;-77
2022/10/26 00:55:58;;;;;;;12.25;8.30;;;;;;;10.11;73.03;100953.25;825383;24;964;-77
2022/10/26 00:56:19;;;;;;;12.38;8.27;;;;;;;10.11;72.99;100944.53;827523;23;1229;-77
2022/10/26 00:56:41;;;;;;;12.45;8.23;;;;;;;10.12;73.05;100949.81;826293;23;1160;-77
2022/10/26 00:57:01;;;;;;;9.38;8.25;;;;;;;10.13;73.16;100946.34;831690;23;994;-77
2022/10/26 00:57:24;;;;;;;10.93;8.30;;;;;;;10.15;73.12;100955.09;830337;23;1554;-78
2022/10/26 00:57:48;;;;;;;11.45;8.52;;;;;;;10.13;73.05;100945.44;827712;23;1202;-77
2022/10/26 00:58:09;;;;;;;13.57;8.98;;;;;;;10.19;72.83;100953.47;829282;23;994;-77
2022/10/26 00:58:31;;;;;;;13.68;9.00;;;;;;;10.12;73.06;100944.59;827113;23;755;-77
2022/10/26 00:58:53;;;;;;;13.20;8.93;;;;;;;10.19;72.83;100950.00;829183;23;1110;-77
2022/10/26 00:59:16;;;;;;;11.95;8.30;;;;;;;10.18;72.96;100948.25;824059;24;1135;-77
2022/10/26 00:59:37;;;;;;;10.95;7.93;;;;;;;10.15;73.23;100944.66;824865;24;893;-77
2022/10/26 00:59:59;;;;;;;10.80;8.07;;;;;;;10.17;73.19;100938.63;821521;24;984;-77
2022/10/26 01:00:20;;;;;;;9.93;8.05;;;;;;;10.14;72.96;100937.69;820121;24;1352;-77
2022/10/26 01:00:42;;;;;;;10.80;8.02;;;;;;;10.15;73.03;100939.44;820216;24;1357;-77
2022/10/26 01:01:03;;;;;;;11.00;7.90;;;;;;;10.21;72.98;100949.19;827911;23;1305;-77
2022/10/26 01:01:24;;;;;;;11.10;8.00;;;;;;;10.20;72.83;100946.56;827762;23;1218;-77
2022/10/26 01:01:47;;;;;;;10.50;8.23;;;;;;;10.24;72.94;100956.28;829176;23;1013;-77
2022/10/26 01:02:08;;;;;;;10.25;8.50;;;;;;;10.21;72.81;100943.09;829207;23;987;-77
2022/10/26 01:02:29;;;;;;;11.30;8.40;;;;;;;10.25;73.11;100951.09;827868;23;1167;-77
2022/10/26 01:02:51;;;;;;;13.05;8.48;;;;;;;10.23;73.09;100944.06;831879;23;1271;-77
2022/10/26 01:03:13;;;;;;;12.07;8.73;;;;;;;10.27;72.96;100954.66;831815;23;1346;-77
2022/10/26 01:03:34;;;;;;;15.00;8.85;;;;;;;10.22;72.76;100939.66;837263;23;903;-78
2022/10/26 01:03:55;;;;;;;12.82;8.70;;;;;;;10.26;72.84;100941.56;831701;23;975;-77
2022/10/26 01:04:17;;;;;;;12.23;8.18;;;;;;;10.26;73.08;100946.78;833250;23;978;-77
2022/10/26 01:04:37;;;;;;;10.52;7.95;;;;;;;10.29;73.02;100952.09;827891;23;1421;-77
2022/10/26 01:05:00;;;;;;;11.30;8.25;;;;;;;10.26;73.01;100941.56;825298;23;1011;-77
2022/10/26 01:05:21;;;;;;;11.70;8.30;;;;;;;10.20;72.95;100933.50;824256;24;1026;-78
2022/10/26 01:05:45;;;;;;;12.20;8.37;;;;;;;10.25;72.94;100945.91;826395;23;736;-77
2022/10/26 01:06:07;;;;;;;11.85;8.50;;;;;;;10.30;73.06;100953.88;830856;23;1963;-77
2022/10/26 01:06:30;;;;;;;10.70;8.35;;;;;;;10.32;72.88;100954.78;831850;23;1217;-77
2022/10/26 01:06:53;;;;;;;10.82;8.52;;;;;;;10.30;73.14;100943.44;835625;23;1189;-78
2022/10/26 01:07:14;;;;;;;10.27;8.55;;;;;;;10.27;73.15;100935.53;831728;23;994;-76
2022/10/26 01:07:35;;;;;;;12.15;9.10;;;;;;;10.27;73.23;100943.34;829329;23;857;-78
2022/10/26 01:07:57;;;;;;;10.90;8.60;;;;;;;10.24;73.25;100938.00;829101;23;1078;-78
2022/10/26 01:08:18;;;;;;;11.80;8.48;;;;;;;10.20;73.33;100939.59;825380;23;1242;-77
2022/10/26 01:08:42;;;;;;;12.05;8.52;;;;;;;10.25;73.16;100939.78;827946;23;1798;-77
2022/10/26 01:09:04;;;;;;;14.32;9.00;;;;;;;10.26;73.25;100939.84;829238;23;1140;-77
2022/10/26 01:09:25;;;;;;;13.18;8.80;;;;;;;10.25;73.26;100940.69;824136;24;1187;-77
2022/10/26 01:09:47;;;;;;;11.75;8.65;;;;;;;10.21;73.32;100937.88;827017;23;1348;-77
2022/10/26 01:10:08;;;;;;;10.40;8.45;;;;;;;10.24;73.23;100935.41;831930;23;1091;-77
2022/10/26 01:10:29;;;;;;;11.60;8.10;;;;;;;10.27;73.23;100943.34;833295;23;933;-77
2022/10/26 01:10:51;;;;;;;12.50;8.10;;;;;;;10.24;73.23;100936.31;834307;23;1053;-77
2022/10/26 01:11:12;;;;;;;13.35;7.80;;;;;;;10.27;73.38;100940.75;832864;23;1120;-77
2022/10/26 01:11:32;;;;;;;13.10;7.93;;;;;;;10.25;73.41;100924.13;831545;23;1719;-77
2022/10/26 01:11:53;;;;;;;12.00;7.80;;;;;;;10.25;73.62;100934.56;827712;23;1081;-77
2022/10/26 01:12:15;;;;;;;11.15;7.75;;;;;;;10.26;73.46;100932.00;827864;23;1143;-77
2022/10/26 01:12:37;;;;;;;10.55;7.72;;;;;;;10.28;73.36;100934.69;824078;24;1186;-77
2022/10/26 01:12:58;;;;;;;9.82;7.65;;;;;;;10.29;73.54;100939.06;820100;24;1091;-78
2022/10/26 01:13:19;;;;;;;9.52;7.68;;;;;;;10.33;73.43;100947.88;822645;24;971;-77
2022/10/26 01:13:42;;;;;;;9.82;7.60;;;;;;;10.31;73.28;100929.53;827779;23;1259;-77
2022/10/26 01:14:08;;;;;;;10.60;7.97;;;;;;;10.34;73.27;100923.53;827970;23;1166;-77
2022/10/26 01:14:29;;;;;;;10.15;7.72;;;;;;;10.43;73.37;100944.69;829446;23;740;-77
2022/10/26 01:14:49;;;;;;;16.45;7.80;;;;;;;10.39;73.20;100933.28;829061;23;876;-77
2022/10/26 01:15:10;;;;;;;18.45;8.00;;;;;;;10.38;73.26;100926.28;829353;23;1116;-77
2022/10/26 01:16:02;;;;;;;18.30;8.20;;;;;;;10.41;73.22;100930.72;830153;23;1334;-77
2022/10/26 01:16:33;;;;;;;12.02;7.93;;;;;;;10.42;73.19;100932.50;835891;23;854;-77
2022/10/26 01:17:27;;;;;;;9.50;7.57;;;;;;;10.53;73.11;100946.78;831657;23;1252;-77
2022/10/26 01:18:00;;;;;;;9.50;7.72;;;;;;;10.54;73.10;100937.22;831680;23;1037;-76
2022/10/26 01:18:36;;;;;;;11.02;8.23;;;;;;;10.46;73.22;100923.94;831134;23;1023;-77
2022/10/26 01:19:22;;;;;;;12.82;8.40;;;;;;;10.58;73.21;100944.31;831664;23;1128;-77
2022/10/26 01:19:44;;;;;;;11.05;8.35;;;;;;;10.60;73.14;100945.22;827020;23;1925;-77
2022/10/26 01:20:20;;;;;;;12.13;8.15;;;;;;;10.49;73.13;100923.13;827920;23;1453;-77
2022/10/26 01:21:05;;;;;;;11.70;7.45;;;;;;;10.62;73.17;100938.34;824319;23;827;-77
2022/10/26 01:21:41;;;;;;;11.05;7.93;;;;;;;10.65;72.99;100934.94;824699;23;1386;-77
2022/10/26 01:22:07;;;;;;;10.13;8.00;;;;;;;10.58;73.22;100923.44;826750;23;1246;-77
2022/10/26 01:22:52;;;;;;;10.52;7.82;;;;;;;10.61;73.06;100927.84;827503;23;1139;-77
2022/10/26 01:23:42;;;;;;;9.57;7.43;;;;;;;10.62;73.11;100922.66;830282;23;1424;-77
2022/10/26 01:24:08;;;;;;;10.10;7.47;;;;;;;10.73;73.09;100932.53;836766;23;934;-77
2022/10/26 01:24:38;;;;;;;10.45;7.75;;;;;;;10.73;72.94;100937.75;831763;23;822;-77
2022/10/26 01:25:14;;;;;;;11.95;7.80;;;;;;;10.61;72.94;100913.06;827642;23;1496;-78
2022/10/26 01:25:37;;;;;;;12.23;7.40;;;;;;;10.75;72.92;100933.50;827884;23;2219;-77
2022/10/26 01:26:10;;;;;;;11.07;7.70;;;;;;;10.77;73.01;100929.19;827879;23;1132;-77
2022/10/26 01:26:47;;;;;;;12.23;8.02;;;;;;;10.73;73.09;100925.59;827804;23;905;-78
2022/10/26 01:27:32;;;;;;;11.75;8.13;;;;;;;10.80;73.18;100939.72;833189;23;1084;-77
2022/10/26 01:27:54;;;;;;;9.82;7.57;;;;;;;10.79;73.18;100932.72;831460;23;1292;-77
2022/10/26 01:28:41;;;;;;;8.95;7.22;;;;;;;10.82;73.06;100930.22;827772;23;1260;-77
2022/10/26 01:29:22;;;;;;;11.68;8.25;;;;;;;10.81;73.38;100926.72;816304;23;1331;-77
2022/10/26 01:30:10;;;;;;;13.05;8.30;;;;;;;10.93;73.42;100943.56;830098;23;803;-77
2022/10/26 01:30:35;;;;;;;12.70;8.50;;;;;;;11.00;73.41;100936.81;835676;23;1231;-77
2022/10/26 01:31:01;;;;;;;9.63;8.07;;;;;;;10.93;73.11;100920.97;834325;23;1282;-78
2022/10/26 01:31:38;;;;;;;12.90;7.88;;;;;;;10.99;73.08;100920.25;837314;23;799;-78
2022/10/26 01:32:08;;;;;;;15.52;8.18;;;;;;;11.03;73.13;100931.69;832995;23;1081;-77
2022/10/26 01:33:11;;;;;;;13.82;8.02;;;;;;;11.08;72.90;100919.66;825373;23;795;-77
2022/10/26 01:33:54;;;;;;;12.70;8.40;;;;;;;11.01;73.07;100912.47;819846;23;1287;-77
2022/10/26 01:34:25;;;;;;;12.00;7.85;;;;;;;10.98;72.86;100910.66;825497;23;1193;-77
2022/10/26 01:35:09;;;;;;;11.10;7.45;;;;;;;11.04;72.75;100923.91;833028;23;1105;-76
2022/10/26 01:35:59;;;;;;;10.55;7.50;;;;;;;11.06;72.77;100926.56;835619;23;701;-78
2022/10/26 01:36:32;;;;;;;10.38;7.93;;;;;;;11.05;72.91;100930.00;836986;23;1172;-77
2022/10/26 01:36:59;;;;;;;10.68;7.90;;;;;;;10.99;73.02;100917.63;831481;23;1516;-77
2022/10/26 01:37:27;;;;;;;10.23;7.85;;;;;;;11.00;72.83;100915.94;827591;23;1068;-78
2022/10/26 01:37:58;;;;;;;9.80;7.30;;;;;;;11.00;72.71;100918.53;829039;23;1459;-77
2022/10/26 01:38:26;;;;;;;9.05;7.15;;;;;;;10.96;73.02;100910.59;823808;23;1147;-77
2022/10/26 01:38:54;;;;;;;8.82;7.32;;;;;;;11.08;73.15;100925.72;825154;23;1138;-77
2022/10/26 01:39:22;;;;;;;10.68;7.55;;;;;;;10.98;73.07;100910.66;822902;24;1421;-76
2022/10/26 01:39:47;;;;;;;11.55;7.40;;;;;;;10.99;73.04;100904.59;819174;24;1186;-79
2022/10/26 01:40:15;;;;;;;10.77;7.20;;;;;;;11.07;72.85;100921.34;824704;23;1049;-77
2022/10/26 01:40:45;;;;;;;10.52;7.20;;;;;;;11.06;73.00;100908.28;827041;23;759;-77
2022/10/26 01:41:19;;;;;;;10.43;7.25;;;;;;;11.09;72.89;100910.97;829701;23;1909;-78
2022/10/26 01:41:51;;;;;;;9.50;6.97;;;;;;;11.06;72.75;100916.97;823847;24;894;-77
2022/10/26 01:42:15;;;;;;;10.00;6.88;;;;;;;11.09;72.86;100917.09;828984;23;1402;-77
2022/10/26 01:42:43;;;;;;;11.55;7.40;;;;;;;11.11;72.54;100914.50;827788;23;1256;-76
2022/10/26 01:43:08;;;;;;;14.23;7.78;;;;;;;11.13;72.92;100907.59;829293;23;952;-77
2022/10/26 01:43:34;;;;;;;13.20;8.20;;;;;;;11.10;72.49;100897.06;825484;23;1246;-78
2022/10/26 01:44:01;;;;;;;11.65;7.35;;;;;;;11.11;72.62;100906.66;824369;23;1103;-77
2022/10/26 01:44:29;;;;;;;10.93;7.28;;;;;;;11.09;72.72;100908.34;829317;23;1197;-77
2022/10/26 01:45:02;;;;;;;9.27;7.50;;;;;;;11.04;72.84;100899.50;823920;24;1019;-77
2022/10/26 01:45:24;;;;;;;8.77;7.68;;;;;;;11.09;72.80;100918.78;820140;24;1202;-77
2022/10/26 01:45:47;;;;;;;9.27;7.30;;;;;;;11.02;72.78;100898.56;827772;23;1149;-77
2022/10/26 01:46:10;;;;;;;10.10;7.10;;;;;;;11.03;73.11;100900.34;831682;23;1953;-77
2022/10/26 01:46:37;;;;;;;10.32;7.07;;;;;;;11.02;72.82;100899.47;829444;23;787;-78
2022/10/26 01:47:00;;;;;;;9.52;7.13;;;;;;;11.05;73.12;100901.28;832906;23;1080;-77
2022/10/26 01:47:22;;;;;;;8.52;6.90;;;;;;;11.01;73.13;100891.59;833257;23;1128;-77
2022/10/26 01:47:46;;;;;;;9.40;7.05;;;;;;;11.13;73.05;100911.94;836489;23;993;-78
2022/10/26 01:48:11;;;;;;;10.10;7.60;;;;;;;11.04;73.08;100902.09;837060;23;1013;-77
2022/10/26 01:48:35;;;;;;;10.43;7.57;;;;;;;11.02;73.00;100888.13;831741;23;1243;-77
2022/10/26 01:49:02;;;;;;;9.82;6.97;;;;;;;11.07;72.88;100896.97;827558;23;1174;-77
2022/10/26 01:49:31;;;;;;;11.88;7.50;;;;;;;11.07;72.86;100896.97;829256;23;791;-77
2022/10/26 01:49:58;;;;;;;11.63;7.65;;;;;;;11.09;72.69;100897.91;825677;23;1081;-77
2022/10/26 01:50:19;;;;;;;10.05;7.05;;;;;;;11.09;72.69;100895.28;830390;23;1046;-77
2022/10/26 01:50:43;;;;;;;11.77;7.20;;;;;;;11.07;72.88;100891.75;833788;23;820;-78
2022/10/26 01:51:06;;;;;;;11.60;7.10;;;;;;;11.16;72.83;100906.78;835869;23;1944;-78
2022/10/26 01:51:29;;;;;;;10.55;7.10;;;;;;;11.08;72.69;100893.53;831680;23;843;-77
2022/10/26 01:51:50;;;;;;;8.75;7.00;;;;;;;11.06;73.05;100890.00;838837;23;1371;-77
2022/10/26 01:52:10;;;;;;;9.82;7.10;;;;;;;11.13;72.59;100902.38;835725;23;1279;-77
2022/10/26 01:52:32;;;;;;;10.38;7.20;;;;;;;11.03;73.06;100885.56;837188;23;763;-77
2022/10/26 01:52:53;;;;;;;9.05;6.80;;;;;;;11.09;72.66;100900.50;831703;23;1403;-77
2022/10/26 01:53:15;;;;;;;10.20;6.88;;;;;;;11.16;73.11;100907.69;832988;23;989;-78
2022/10/26 01:53:43;;;;;;;10.15;7.07;;;;;;;11.10;73.02;100904.91;831689;23;1357;-77
2022/10/26 01:54:03;;;;;;;11.13;7.30;;;;;;;11.07;72.86;100894.38;827736;23;1250;-77
2022/10/26 01:54:25;;;;;;;11.23;6.95;;;;;;;11.04;72.77;100891.66;827801;23;1802;-77
2022/10/26 01:54:46;;;;;;;10.73;7.10;;;;;;;11.09;72.86;100890.06;835473;23;1415;-77
2022/10/26 01:55:38;;;;;;;10.68;7.10;;;;;;;11.17;73.03;100904.22;827657;23;1247;-78
2022/10/26 01:56:00;;;;;;;9.70;6.90;;;;;;;11.08;73.04;100877.84;830420;23;1187;-75
2022/10/26 01:56:24;;;;;;;8.07;6.68;;;;;;;11.13;72.91;100888.44;829193;23;1187;-75
2022/10/26 01:56:50;;;;;;;10.00;6.75;;;;;;;11.12;72.87;100884.06;828931;23;1017;-74
2022/10/26 01:57:14;;;;;;;9.52;6.90;;;;;;;11.06;73.04;100887.38;831856;23;1244;-75
2022/10/26 01:57:37;;;;;;;9.38;6.95;;;;;;;11.08;73.07;100888.31;831669;23;1114;-75
2022/10/26 01:58:12;;;;;;;10.70;7.03;;;;;;;11.08;73.21;100880.47;827690;23;1388;-75